sensor_id;sensor_type;location;lat;lon;timestamp;pressure;altitude;pressure_sealevel;temperature;humidity
38530;BME280;24301;54.332;48.386;2022-07-19T00:02:00;98000.56;;;18.85;89.36
38530;BME280;24301;54.332;48.386;2022-07-19T00:04:25;98002.56;;;18.81;89.18
38530;BME280;24301;54.332;48.386;2022-07-19T00:06:51;98003.72;;;18.77;88.55
38530;BME280;24301;54.332;48.386;2022-07-19T00:09:19;98002.09;;;18.75;88.32
38530;BME280;24301;54.332;48.386;2022-07-19T00:11:45;98001.63;;;18.68;88.30
38530;BME280;24301;54.332;48.386;2022-07-19T00:14:11;98007.06;;;18.66;88.08
38530;BME280;24301;54.332;48.386;2022-07-19T00:16:36;98000.88;;;18.66;88.32
38530;BME280;24301;54.332;48.386;2022-07-19T00:19:02;97998.13;;;18.67;87.91
38530;BME280;24301;54.332;48.386;2022-07-19T00:21:28;98001.34;;;18.73;87.98
38530;BME280;24301;54.332;48.386;2022-07-19T00:23:54;97994.50;;;18.69;87.66
38530;BME280;24301;54.332;48.386;2022-07-19T00:26:20;98008.75;;;18.67;87.07
38530;BME280;24301;54.332;48.386;2022-07-19T00:28:45;97999.81;;;18.69;87.35
38530;BME280;24301;54.332;48.386;2022-07-19T00:31:11;97993.56;;;18.70;87.35
38530;BME280;24301;54.332;48.386;2022-07-19T00:33:37;97996.22;;;18.70;87.07
38530;BME280;24301;54.332;48.386;2022-07-19T00:36:03;97990.41;;;18.63;86.69
38530;BME280;24301;54.332;48.386;2022-07-19T00:38:29;97998.31;;;18.64;87.03
38530;BME280;24301;54.332;48.386;2022-07-19T00:40:55;97995.66;;;18.64;86.88
38530;BME280;24301;54.332;48.386;2022-07-19T00:43:21;98006.19;;;18.66;86.88
38530;BME280;24301;54.332;48.386;2022-07-19T00:45:46;98006.28;;;18.64;86.29
38530;BME280;24301;54.332;48.386;2022-07-19T00:48:12;98016.00;;;18.65;86.43
38530;BME280;24301;54.332;48.386;2022-07-19T00:50:38;97999.66;;;18.57;86.14
38530;BME280;24301;54.332;48.386;2022-07-19T00:53:04;98001.72;;;18.52;85.72
38530;BME280;24301;54.332;48.386;2022-07-19T00:55:33;98000.50;;;18.43;85.36
38530;BME280;24301;54.332;48.386;2022-07-19T00:58:00;98001.84;;;18.36;85.33
38530;BME280;24301;54.332;48.386;2022-07-19T01:00:28;97997.56;;;18.33;85.08
38530;BME280;24301;54.332;48.386;2022-07-19T01:02:55;98001.56;;;18.41;85.08
38530;BME280;24301;54.332;48.386;2022-07-19T01:05:21;97989.22;;;18.40;84.36
38530;BME280;24301;54.332;48.386;2022-07-19T01:07:47;97991.75;;;18.41;83.92
38530;BME280;24301;54.332;48.386;2022-07-19T01:10:14;97990.53;;;18.47;83.76
38530;BME280;24301;54.332;48.386;2022-07-19T01:12:41;97988.81;;;18.46;83.35
38530;BME280;24301;54.332;48.386;2022-07-19T01:15:19;97986.34;;;18.43;83.32
38530;BME280;24301;54.332;48.386;2022-07-19T01:17:46;97983.13;;;18.37;83.08
38530;BME280;24301;54.332;48.386;2022-07-19T01:20:12;97977.41;;;18.29;82.76
38530;BME280;24301;54.332;48.386;2022-07-19T01:22:41;97978.94;;;18.19;82.99
38530;BME280;24301;54.332;48.386;2022-07-19T01:25:07;97970.09;;;18.18;83.34
38530;BME280;24301;54.332;48.386;2022-07-19T01:27:41;97962.25;;;18.17;83.41
38530;BME280;24301;54.332;48.386;2022-07-19T01:30:16;97964.53;;;18.08;83.33
38530;BME280;24301;54.332;48.386;2022-07-19T01:32:42;97954.78;;;17.93;83.61
38530;BME280;24301;54.332;48.386;2022-07-19T01:35:08;97961.31;;;17.87;83.83
38530;BME280;24301;54.332;48.386;2022-07-19T01:37:35;97954.97;;;17.90;84.19
38530;BME280;24301;54.332;48.386;2022-07-19T01:40:03;97956.88;;;17.88;83.84
38530;BME280;24301;54.332;48.386;2022-07-19T01:42:29;97949.16;;;17.83;84.11
38530;BME280;24301;54.332;48.386;2022-07-19T01:44:55;97958.59;;;17.89;84.43
38530;BME280;24301;54.332;48.386;2022-07-19T01:47:21;97961.56;;;18.42;84.86
38530;BME280;24301;54.332;48.386;2022-07-19T01:49:47;97970.06;;;19.18;82.77
38530;BME280;24301;54.332;48.386;2022-07-19T01:52:12;97978.88;;;19.87;79.96
38530;BME280;24301;54.332;48.386;2022-07-19T01:54:38;97986.47;;;20.45;77.45
38530;BME280;24301;54.332;48.386;2022-07-19T01:57:04;97983.75;;;20.71;74.39
38530;BME280;24301;54.332;48.386;2022-07-19T01:59:30;97980.84;;;20.87;72.90
38530;BME280;24301;54.332;48.386;2022-07-19T02:01:55;97988.31;;;21.19;71.68
38530;BME280;24301;54.332;48.386;2022-07-19T02:04:21;97968.88;;;21.41;69.26
38530;BME280;24301;54.332;48.386;2022-07-19T02:06:47;97978.53;;;21.55;68.01
38530;BME280;24301;54.332;48.386;2022-07-19T02:09:13;97987.97;;;21.72;66.87
38530;BME280;24301;54.332;48.386;2022-07-19T02:11:39;97972.38;;;22.02;66.18
38530;BME280;24301;54.332;48.386;2022-07-19T02:14:09;97975.41;;;22.31;64.71
38530;BME280;24301;54.332;48.386;2022-07-19T02:16:36;97985.91;;;22.68;63.83
38530;BME280;24301;54.332;48.386;2022-07-19T02:19:03;97969.09;;;22.89;62.38
38530;BME280;24301;54.332;48.386;2022-07-19T02:21:30;97981.72;;;22.99;61.34
38530;BME280;24301;54.332;48.386;2022-07-19T02:23:56;97975.03;;;23.04;60.25
38530;BME280;24301;54.332;48.386;2022-07-19T02:26:22;97979.03;;;22.99;60.08
38530;BME280;24301;54.332;48.386;2022-07-19T02:28:48;97971.47;;;23.04;59.41
38530;BME280;24301;54.332;48.386;2022-07-19T02:31:14;97979.59;;;23.14;58.48
38530;BME280;24301;54.332;48.386;2022-07-19T02:33:39;97999.03;;;22.72;58.17
38530;BME280;24301;54.332;48.386;2022-07-19T02:36:05;97994.59;;;21.91;60.27
38530;BME280;24301;54.332;48.386;2022-07-19T02:38:32;97990.13;;;21.18;61.50
38530;BME280;24301;54.332;48.386;2022-07-19T02:40:57;97996.47;;;20.54;63.01
38530;BME280;24301;54.332;48.386;2022-07-19T02:43:23;98003.97;;;20.36;63.92
38530;BME280;24301;54.332;48.386;2022-07-19T02:45:49;98005.75;;;20.74;63.87
38530;BME280;24301;54.332;48.386;2022-07-19T02:48:15;97994.91;;;21.50;61.27
38530;BME280;24301;54.332;48.386;2022-07-19T02:50:41;97992.19;;;22.22;58.80
38530;BME280;24301;54.332;48.386;2022-07-19T02:53:07;97992.25;;;22.67;56.51
38530;BME280;24301;54.332;48.386;2022-07-19T02:55:33;97987.78;;;23.12;54.68
38530;BME280;24301;54.332;48.386;2022-07-19T02:57:59;98006.81;;;22.98;53.95
38530;BME280;24301;54.332;48.386;2022-07-19T03:00:26;98016.66;;;22.97;53.22
38530;BME280;24301;54.332;48.386;2022-07-19T03:02:52;98025.25;;;23.35;52.52
38530;BME280;24301;54.332;48.386;2022-07-19T03:05:18;98009.63;;;23.73;51.00
38530;BME280;24301;54.332;48.386;2022-07-19T03:07:43;98028.88;;;23.99;50.04
38530;BME280;24301;54.332;48.386;2022-07-19T03:10:09;97998.41;;;24.00;48.89
38530;BME280;24301;54.332;48.386;2022-07-19T03:12:36;98017.81;;;24.04;48.10
38530;BME280;24301;54.332;48.386;2022-07-19T03:15:03;98033.88;;;24.25;47.01
38530;BME280;24301;54.332;48.386;2022-07-19T03:17:29;98024.16;;;24.55;46.55
38530;BME280;24301;54.332;48.386;2022-07-19T03:19:55;98044.56;;;24.67;45.85
38530;BME280;24301;54.332;48.386;2022-07-19T03:22:20;98029.88;;;24.72;45.93
38530;BME280;24301;54.332;48.386;2022-07-19T03:24:46;98036.44;;;24.79;45.57
38530;BME280;24301;54.332;48.386;2022-07-19T03:27:12;98046.97;;;25.02;45.35
38530;BME280;24301;54.332;48.386;2022-07-19T03:29:38;98033.88;;;25.18;44.47
38530;BME280;24301;54.332;48.386;2022-07-19T03:32:04;98046.78;;;25.44;43.66
38530;BME280;24301;54.332;48.386;2022-07-19T03:34:30;98043.00;;;25.76;43.18
38530;BME280;24301;54.332;48.386;2022-07-19T03:36:55;98022.78;;;25.92;41.88
38530;BME280;24301;54.332;48.386;2022-07-19T03:39:42;98031.38;;;26.05;41.97
38530;BME280;24301;54.332;48.386;2022-07-19T03:42:08;98036.84;;;26.43;41.14
38530;BME280;24301;54.332;48.386;2022-07-19T03:44:36;98011.72;;;26.90;39.48
38530;BME280;24301;54.332;48.386;2022-07-19T03:47:29;98040.88;;;27.05;39.35
38530;BME280;24301;54.332;48.386;2022-07-19T03:50:18;98043.72;;;27.49;38.23
38530;BME280;24301;54.332;48.386;2022-07-19T03:52:53;98045.53;;;27.95;37.75
38530;BME280;24301;54.332;48.386;2022-07-19T03:55:19;98038.34;;;28.22;37.46
38530;BME280;24301;54.332;48.386;2022-07-19T03:57:45;98042.72;;;28.49;36.79
38530;BME280;24301;54.332;48.386;2022-07-19T04:00:11;98046.63;;;28.47;36.68
38530;BME280;24301;54.332;48.386;2022-07-19T04:02:41;98056.16;;;28.94;36.18
38530;BME280;24301;54.332;48.386;2022-07-19T04:05:07;98050.56;;;29.38;35.16
38530;BME280;24301;54.332;48.386;2022-07-19T04:07:33;98061.53;;;30.13;34.03
38530;BME280;24301;54.332;48.386;2022-07-19T04:09:59;98067.22;;;29.68;34.27
38530;BME280;24301;54.332;48.386;2022-07-19T04:12:25;98072.94;;;29.06;34.79
38530;BME280;24301;54.332;48.386;2022-07-19T04:14:51;98084.44;;;28.10;36.39
38530;BME280;24301;54.332;48.386;2022-07-19T04:17:17;98097.75;;;27.11;38.31
38530;BME280;24301;54.332;48.386;2022-07-19T04:19:43;98090.78;;;27.09;38.07
38530;BME280;24301;54.332;48.386;2022-07-19T04:22:09;98073.06;;;26.68;38.69
38530;BME280;24301;54.332;48.386;2022-07-19T04:24:34;98088.91;;;27.19;37.85
38530;BME280;24301;54.332;48.386;2022-07-19T04:27:00;98098.81;;;26.91;38.16
38530;BME280;24301;54.332;48.386;2022-07-19T04:29:26;98108.84;;;26.11;39.45
38530;BME280;24301;54.332;48.386;2022-07-19T04:31:52;98115.38;;;25.29;40.84
38530;BME280;24301;54.332;48.386;2022-07-19T04:34:18;98119.75;;;24.67;42.21
38530;BME280;24301;54.332;48.386;2022-07-19T04:36:44;98125.72;;;23.96;43.78
38530;BME280;24301;54.332;48.386;2022-07-19T04:39:10;98136.59;;;23.28;44.76
38530;BME280;24301;54.332;48.386;2022-07-19T04:41:35;98140.94;;;22.83;46.35
38530;BME280;24301;54.332;48.386;2022-07-19T04:44:01;98141.63;;;22.51;47.04
38530;BME280;24301;54.332;48.386;2022-07-19T04:46:27;98138.38;;;22.23;47.77
38530;BME280;24301;54.332;48.386;2022-07-19T04:48:53;98129.41;;;22.00;48.24
38530;BME280;24301;54.332;48.386;2022-07-19T04:51:18;98139.84;;;21.54;49.61
38530;BME280;24301;54.332;48.386;2022-07-19T04:53:44;98138.91;;;21.42;50.34
38530;BME280;24301;54.332;48.386;2022-07-19T04:56:10;98146.53;;;21.60;50.44
38530;BME280;24301;54.332;48.386;2022-07-19T04:58:36;98136.59;;;21.62;50.51
38530;BME280;24301;54.332;48.386;2022-07-19T05:01:02;98148.38;;;21.59;50.85
38530;BME280;24301;54.332;48.386;2022-07-19T05:03:27;98150.63;;;21.52;51.36
38530;BME280;24301;54.332;48.386;2022-07-19T05:05:53;98139.16;;;21.26;51.80
38530;BME280;24301;54.332;48.386;2022-07-19T05:08:19;98146.66;;;20.95;52.41
38530;BME280;24301;54.332;48.386;2022-07-19T05:10:45;98131.19;;;20.74;53.40
38530;BME280;24301;54.332;48.386;2022-07-19T05:13:11;98153.59;;;20.59;53.92
38530;BME280;24301;54.332;48.386;2022-07-19T05:15:37;98151.47;;;20.77;53.98
38530;BME280;24301;54.332;48.386;2022-07-19T05:18:03;98156.53;;;21.45;53.47
38530;BME280;24301;54.332;48.386;2022-07-19T05:20:29;98126.03;;;22.45;51.03
38530;BME280;24301;54.332;48.386;2022-07-19T05:22:55;98139.25;;;22.93;49.92
38530;BME280;24301;54.332;48.386;2022-07-19T05:25:20;98146.19;;;22.96;49.71
38530;BME280;24301;54.332;48.386;2022-07-19T05:27:46;98135.97;;;22.78;49.92
38530;BME280;24301;54.332;48.386;2022-07-19T05:30:12;98144.09;;;22.30;50.50
38530;BME280;24301;54.332;48.386;2022-07-19T05:32:38;98145.00;;;22.06;51.20
38530;BME280;24301;54.332;48.386;2022-07-19T05:35:04;98168.94;;;21.83;51.72
38530;BME280;24301;54.332;48.386;2022-07-19T05:37:30;98149.25;;;21.47;52.63
38530;BME280;24301;54.332;48.386;2022-07-19T05:39:59;98152.63;;;21.24;53.16
38530;BME280;24301;54.332;48.386;2022-07-19T05:42:25;98161.53;;;21.12;53.59
38530;BME280;24301;54.332;48.386;2022-07-19T05:44:51;98176.91;;;20.95;53.91
38530;BME280;24301;54.332;48.386;2022-07-19T05:47:20;98170.06;;;20.78;54.66
38530;BME280;24301;54.332;48.386;2022-07-19T05:49:49;98154.59;;;20.96;54.65
38530;BME280;24301;54.332;48.386;2022-07-19T05:52:15;98156.16;;;22.35;51.82
38530;BME280;24301;54.332;48.386;2022-07-19T05:54:41;98156.03;;;22.84;50.07
38530;BME280;24301;54.332;48.386;2022-07-19T05:57:07;98160.28;;;23.66;48.90
38530;BME280;24301;54.332;48.386;2022-07-19T05:59:33;98119.91;;;26.38;44.26
38530;BME280;24301;54.332;48.386;2022-07-19T06:02:02;98127.72;;;28.37;39.36
38530;BME280;24301;54.332;48.386;2022-07-19T06:04:28;98148.63;;;28.53;38.57
38530;BME280;24301;54.332;48.386;2022-07-19T06:06:55;98154.56;;;29.95;36.63
38530;BME280;24301;54.332;48.386;2022-07-19T06:09:21;98131.09;;;31.35;34.54
38530;BME280;24301;54.332;48.386;2022-07-19T06:11:46;98154.50;;;32.00;32.68
38530;BME280;24301;54.332;48.386;2022-07-19T06:14:12;98150.38;;;32.74;31.41
38530;BME280;24301;54.332;48.386;2022-07-19T06:16:39;98145.63;;;33.36;30.22
38530;BME280;24301;54.332;48.386;2022-07-19T06:19:07;98171.84;;;33.89;29.84
38530;BME280;24301;54.332;48.386;2022-07-19T06:21:33;98166.75;;;33.04;30.19
38530;BME280;24301;54.332;48.386;2022-07-19T06:23:59;98139.25;;;33.59;29.51
38530;BME280;24301;54.332;48.386;2022-07-19T06:26:26;98171.38;;;33.48;28.44
38530;BME280;24301;54.332;48.386;2022-07-19T06:28:53;98176.06;;;33.91;28.12
38530;BME280;24301;54.332;48.386;2022-07-19T06:31:19;98166.13;;;34.42;27.94
38530;BME280;24301;54.332;48.386;2022-07-19T06:33:46;98180.59;;;34.64;26.71
38530;BME280;24301;54.332;48.386;2022-07-19T06:36:16;98160.75;;;34.05;26.87
38530;BME280;24301;54.332;48.386;2022-07-19T06:38:42;98168.44;;;33.35;27.50
38530;BME280;24301;54.332;48.386;2022-07-19T06:41:10;98185.41;;;33.07;28.16
38530;BME280;24301;54.332;48.386;2022-07-19T06:43:35;98173.03;;;31.08;30.35
38530;BME280;24301;54.332;48.386;2022-07-19T06:46:01;98190.44;;;28.49;34.48
38530;BME280;24301;54.332;48.386;2022-07-19T06:48:27;98183.03;;;26.83;37.41
38530;BME280;24301;54.332;48.386;2022-07-19T06:50:53;98198.56;;;25.61;39.51
38530;BME280;24301;54.332;48.386;2022-07-19T06:53:19;98180.22;;;26.75;38.64
38530;BME280;24301;54.332;48.386;2022-07-19T06:55:45;98190.13;;;28.52;35.16
38530;BME280;24301;54.332;48.386;2022-07-19T06:58:11;98196.91;;;30.05;32.88
38530;BME280;24301;54.332;48.386;2022-07-19T07:00:37;98200.66;;;31.11;31.30
38530;BME280;24301;54.332;48.386;2022-07-19T07:03:03;98204.88;;;31.71;29.91
38530;BME280;24301;54.332;48.386;2022-07-19T07:06:42;98196.44;;;32.52;28.53
38530;BME280;24301;54.332;48.386;2022-07-19T07:09:08;98193.19;;;32.95;27.78
38530;BME280;24301;54.332;48.386;2022-07-19T07:11:34;98193.56;;;32.68;27.52
38530;BME280;24301;54.332;48.386;2022-07-19T07:14:00;98213.09;;;31.94;28.92
38530;BME280;24301;54.332;48.386;2022-07-19T07:16:25;98229.38;;;32.25;28.48
38530;BME280;24301;54.332;48.386;2022-07-19T07:18:51;98222.88;;;32.58;28.65
38530;BME280;24301;54.332;48.386;2022-07-19T07:21:17;98224.50;;;32.67;27.70
38530;BME280;24301;54.332;48.386;2022-07-19T07:23:43;98215.72;;;33.04;27.66
38530;BME280;24301;54.332;48.386;2022-07-19T07:26:09;98203.69;;;32.05;28.73
38530;BME280;24301;54.332;48.386;2022-07-19T07:28:35;98227.94;;;30.60;30.75
38530;BME280;24301;54.332;48.386;2022-07-19T07:31:00;98247.00;;;29.13;32.85
38530;BME280;24301;54.332;48.386;2022-07-19T07:33:26;98255.38;;;26.98;35.60
38530;BME280;24301;54.332;48.386;2022-07-19T07:35:52;98276.06;;;26.38;37.08
38530;BME280;24301;54.332;48.386;2022-07-19T07:38:18;98275.94;;;25.99;37.81
38530;BME280;24301;54.332;48.386;2022-07-19T07:40:44;98271.53;;;26.29;37.35
38530;BME280;24301;54.332;48.386;2022-07-19T07:43:10;98272.31;;;28.31;33.52
38530;BME280;24301;54.332;48.386;2022-07-19T07:45:36;98264.13;;;29.22;31.87
38530;BME280;24301;54.332;48.386;2022-07-19T07:48:01;98241.44;;;27.88;32.58
38530;BME280;24301;54.332;48.386;2022-07-19T07:50:27;98282.31;;;26.29;34.99
38530;BME280;24301;54.332;48.386;2022-07-19T07:52:53;98277.72;;;25.16;36.88
38530;BME280;24301;54.332;48.386;2022-07-19T07:55:19;98293.31;;;24.68;37.95
38530;BME280;24301;54.332;48.386;2022-07-19T07:57:45;98277.72;;;24.30;38.38
38530;BME280;24301;54.332;48.386;2022-07-19T08:00:11;98295.28;;;24.00;39.76
38530;BME280;24301;54.332;48.386;2022-07-19T08:02:43;98319.59;;;23.75;40.80
38530;BME280;24301;54.332;48.386;2022-07-19T08:05:11;98300.81;;;23.75;41.16
38530;BME280;24301;54.332;48.386;2022-07-19T08:07:37;98327.88;;;23.38;41.73
38530;BME280;24301;54.332;48.386;2022-07-19T08:10:05;98338.84;;;23.10;42.50
38530;BME280;24301;54.332;48.386;2022-07-19T08:12:32;98337.09;;;23.34;42.71
38530;BME280;24301;54.332;48.386;2022-07-19T08:14:58;98319.81;;;23.83;41.91
38530;BME280;24301;54.332;48.386;2022-07-19T08:17:24;98327.41;;;24.01;41.20
38530;BME280;24301;54.332;48.386;2022-07-19T08:19:50;98343.22;;;23.81;42.13
38530;BME280;24301;54.332;48.386;2022-07-19T08:22:16;98354.56;;;24.19;42.00
38530;BME280;24301;54.332;48.386;2022-07-19T08:24:44;98348.38;;;24.07;41.75
38530;BME280;24301;54.332;48.386;2022-07-19T08:27:11;98325.44;;;23.58;42.54
38530;BME280;24301;54.332;48.386;2022-07-19T08:29:37;98356.59;;;23.00;43.59
38530;BME280;24301;54.332;48.386;2022-07-19T08:32:03;98365.06;;;22.94;43.44
38530;BME280;24301;54.332;48.386;2022-07-19T08:34:29;98370.66;;;22.91;43.40
38530;BME280;24301;54.332;48.386;2022-07-19T08:36:54;98380.44;;;22.67;43.82
38530;BME280;24301;54.332;48.386;2022-07-19T08:39:20;98371.13;;;22.60;44.28
38530;BME280;24301;54.332;48.386;2022-07-19T08:41:46;98350.56;;;22.36;43.94
38530;BME280;24301;54.332;48.386;2022-07-19T08:44:12;98378.66;;;22.05;44.22
38530;BME280;24301;54.332;48.386;2022-07-19T08:46:42;98388.88;;;22.24;44.39
38530;BME280;24301;54.332;48.386;2022-07-19T08:49:09;98383.50;;;22.37;44.60
38530;BME280;24301;54.332;48.386;2022-07-19T08:51:35;98381.31;;;22.55;44.13
38530;BME280;24301;54.332;48.386;2022-07-19T08:54:00;98389.06;;;22.47;44.54
38530;BME280;24301;54.332;48.386;2022-07-19T08:56:27;98399.13;;;22.30;44.84
38530;BME280;24301;54.332;48.386;2022-07-19T08:59:12;98412.31;;;22.20;45.66
38530;BME280;24301;54.332;48.386;2022-07-19T09:01:38;98422.97;;;21.96;46.34
38530;BME280;24301;54.332;48.386;2022-07-19T09:04:14;98428.00;;;21.88;47.02
38530;BME280;24301;54.332;48.386;2022-07-19T09:06:42;98422.31;;;21.92;46.36
38530;BME280;24301;54.332;48.386;2022-07-19T09:09:09;98408.28;;;22.15;45.92
38530;BME280;24301;54.332;48.386;2022-07-19T09:11:40;98418.75;;;22.18;46.24
38530;BME280;24301;54.332;48.386;2022-07-19T09:14:16;98406.66;;;22.12;46.22
38530;BME280;24301;54.332;48.386;2022-07-19T09:19:30;98412.03;;;22.12;46.43
38530;BME280;24301;54.332;48.386;2022-07-19T09:22:18;98408.16;;;22.16;46.71
38530;BME280;24301;54.332;48.386;2022-07-19T09:24:46;98404.31;;;21.94;46.55
38530;BME280;24301;54.332;48.386;2022-07-19T09:27:14;98385.09;;;21.89;46.23
38530;BME280;24301;54.332;48.386;2022-07-19T09:29:45;98412.56;;;21.91;46.17
38530;BME280;24301;54.332;48.386;2022-07-19T09:32:14;98418.66;;;21.93;46.25
38530;BME280;24301;54.332;48.386;2022-07-19T09:37:16;98419.00;;;21.76;46.30
38530;BME280;24301;54.332;48.386;2022-07-19T09:39:43;98417.38;;;21.99;46.53
38530;BME280;24301;54.332;48.386;2022-07-19T09:42:14;98422.47;;;22.28;45.24
38530;BME280;24301;54.332;48.386;2022-07-19T09:44:41;98423.31;;;22.42;44.82
38530;BME280;24301;54.332;48.386;2022-07-19T09:47:08;98409.00;;;22.30;43.42
38530;BME280;24301;54.332;48.386;2022-07-19T09:49:33;98417.88;;;22.30;43.82
38530;BME280;24301;54.332;48.386;2022-07-19T09:51:59;98418.41;;;22.22;44.07
38530;BME280;24301;54.332;48.386;2022-07-19T09:54:28;98423.00;;;22.33;44.27
38530;BME280;24301;54.332;48.386;2022-07-19T09:56:57;98416.47;;;22.37;44.70
38530;BME280;24301;54.332;48.386;2022-07-19T09:59:27;98432.09;;;22.44;44.96
38530;BME280;24301;54.332;48.386;2022-07-19T10:01:55;98411.97;;;22.51;44.34
38530;BME280;24301;54.332;48.386;2022-07-19T10:04:24;98430.94;;;22.48;45.24
38530;BME280;24301;54.332;48.386;2022-07-19T10:06:50;98424.38;;;22.52;44.84
38530;BME280;24301;54.332;48.386;2022-07-19T10:09:19;98428.66;;;22.55;44.54
38530;BME280;24301;54.332;48.386;2022-07-19T10:11:45;98428.91;;;22.51;44.67
38530;BME280;24301;54.332;48.386;2022-07-19T10:14:11;98421.84;;;22.37;44.30
38530;BME280;24301;54.332;48.386;2022-07-19T10:17:08;98415.94;;;22.32;44.27
38530;BME280;24301;54.332;48.386;2022-07-19T10:19:42;98444.34;;;22.22;44.37
38530;BME280;24301;54.332;48.386;2022-07-19T10:22:11;98429.31;;;22.32;44.81
38530;BME280;24301;54.332;48.386;2022-07-19T10:24:41;98424.47;;;22.63;44.99
38530;BME280;24301;54.332;48.386;2022-07-19T10:27:19;98426.50;;;22.84;43.98
38530;BME280;24301;54.332;48.386;2022-07-19T10:32:42;98447.00;;;22.72;44.77
38530;BME280;24301;54.332;48.386;2022-07-19T10:35:29;98445.94;;;22.75;44.77
38530;BME280;24301;54.332;48.386;2022-07-19T10:38:07;98436.66;;;22.67;44.24
38530;BME280;24301;54.332;48.386;2022-07-19T10:40:45;98414.94;;;22.59;44.64
38530;BME280;24301;54.332;48.386;2022-07-19T10:43:12;98443.53;;;22.59;43.94
38530;BME280;24301;54.332;48.386;2022-07-19T10:45:40;98420.66;;;22.42;43.83
38530;BME280;24301;54.332;48.386;2022-07-19T10:48:12;98450.91;;;22.42;44.28
38530;BME280;24301;54.332;48.386;2022-07-19T10:50:47;98446.88;;;22.49;44.52
38530;BME280;24301;54.332;48.386;2022-07-19T10:56:20;98451.16;;;22.52;44.49
38530;BME280;24301;54.332;48.386;2022-07-19T10:58:52;98465.06;;;22.57;44.72
38530;BME280;24301;54.332;48.386;2022-07-19T11:01:20;98456.41;;;22.53;44.56
38530;BME280;24301;54.332;48.386;2022-07-19T11:03:48;98452.41;;;22.59;43.85
38530;BME280;24301;54.332;48.386;2022-07-19T11:06:26;98443.13;;;22.52;43.15
38530;BME280;24301;54.332;48.386;2022-07-19T11:08:57;98466.38;;;22.51;44.08
38530;BME280;24301;54.332;48.386;2022-07-19T11:11:25;98459.59;;;22.59;44.08
38530;BME280;24301;54.332;48.386;2022-07-19T11:13:56;98468.47;;;22.59;44.23
38530;BME280;24301;54.332;48.386;2022-07-19T11:16:27;98465.69;;;22.61;44.55
38530;BME280;24301;54.332;48.386;2022-07-19T11:19:03;98475.50;;;22.73;44.85
38530;BME280;24301;54.332;48.386;2022-07-19T11:21:31;98466.47;;;22.87;43.94
38530;BME280;24301;54.332;48.386;2022-07-19T11:23:58;98468.47;;;22.96;43.64
38530;BME280;24301;54.332;48.386;2022-07-19T11:26:24;98472.94;;;22.96;43.50
38530;BME280;24301;54.332;48.386;2022-07-19T11:28:50;98477.63;;;22.81;43.81
38530;BME280;24301;54.332;48.386;2022-07-19T11:31:21;98474.19;;;22.79;43.82
38530;BME280;24301;54.332;48.386;2022-07-19T11:33:50;98475.75;;;22.94;44.02
38530;BME280;24301;54.332;48.386;2022-07-19T11:36:17;98468.47;;;22.96;43.94
38530;BME280;24301;54.332;48.386;2022-07-19T11:38:45;98470.91;;;23.00;44.05
38530;BME280;24301;54.332;48.386;2022-07-19T11:41:22;98482.88;;;23.07;44.03
38530;BME280;24301;54.332;48.386;2022-07-19T11:46:17;98483.78;;;23.19;44.11
38530;BME280;24301;54.332;48.386;2022-07-19T11:48:43;98481.75;;;23.22;44.12
38530;BME280;24301;54.332;48.386;2022-07-19T11:51:10;98486.47;;;23.19;43.85
38530;BME280;24301;54.332;48.386;2022-07-19T11:53:38;98485.94;;;23.27;43.66
38530;BME280;24301;54.332;48.386;2022-07-19T11:56:05;98477.94;;;23.14;43.44
38530;BME280;24301;54.332;48.386;2022-07-19T11:58:32;98474.16;;;22.92;43.62
38530;BME280;24301;54.332;48.386;2022-07-19T12:01:05;98482.09;;;22.93;44.09
38530;BME280;24301;54.332;48.386;2022-07-19T12:03:31;98497.94;;;22.96;44.37
38530;BME280;24301;54.332;48.386;2022-07-19T12:06:00;98489.34;;;23.04;44.26
38530;BME280;24301;54.332;48.386;2022-07-19T12:08:38;98491.97;;;23.17;44.21
38530;BME280;24301;54.332;48.386;2022-07-19T12:11:18;98494.19;;;23.23;43.87
38530;BME280;24301;54.332;48.386;2022-07-19T12:13:44;98474.44;;;23.24;43.87
38530;BME280;24301;54.332;48.386;2022-07-19T12:16:11;98498.66;;;23.23;43.66
38530;BME280;24301;54.332;48.386;2022-07-19T12:18:52;98488.47;;;23.04;43.67
38530;BME280;24301;54.332;48.386;2022-07-19T12:24:13;98478.50;;;23.06;43.08
38530;BME280;24301;54.332;48.386;2022-07-19T12:31:48;98492.81;;;22.93;43.11
38530;BME280;24301;54.332;48.386;2022-07-19T12:34:16;98501.72;;;22.81;43.87
38530;BME280;24301;54.332;48.386;2022-07-19T12:36:42;98500.53;;;22.85;44.31
38530;BME280;24301;54.332;48.386;2022-07-19T12:39:37;98505.28;;;22.81;44.79
38530;BME280;24301;54.332;48.386;2022-07-19T12:42:05;98498.63;;;22.87;44.86
38530;BME280;24301;54.332;48.386;2022-07-19T12:44:33;98500.31;;;22.88;45.02
38530;BME280;24301;54.332;48.386;2022-07-19T12:47:00;98498.50;;;22.89;44.50
38530;BME280;24301;54.332;48.386;2022-07-19T12:49:48;98509.25;;;23.13;44.74
38530;BME280;24301;54.332;48.386;2022-07-19T12:52:14;98494.09;;;23.25;44.38
38530;BME280;24301;54.332;48.386;2022-07-19T12:54:40;98498.53;;;23.37;43.02
38530;BME280;24301;54.332;48.386;2022-07-19T12:57:06;98509.03;;;23.41;42.97
38530;BME280;24301;54.332;48.386;2022-07-19T12:59:32;98505.50;;;23.40;42.92
38530;BME280;24301;54.332;48.386;2022-07-19T13:02:12;98504.00;;;23.36;42.45
38530;BME280;24301;54.332;48.386;2022-07-19T13:04:39;98487.34;;;23.19;42.57
38530;BME280;24301;54.332;48.386;2022-07-19T13:07:06;98482.78;;;23.08;42.67
38530;BME280;24301;54.332;48.386;2022-07-19T13:09:33;98508.00;;;22.93;43.09
38530;BME280;24301;54.332;48.386;2022-07-19T13:12:01;98501.81;;;22.92;42.85
38530;BME280;24301;54.332;48.386;2022-07-19T13:14:27;98501.44;;;22.97;42.93
38530;BME280;24301;54.332;48.386;2022-07-19T13:16:53;98500.72;;;22.95;43.04